Siglerville, Pennsylvania
Current Conditions -  °F | °C
As of 3:53 PM on Tuesday 21 Oct 2014 (Local Time) from KUNV Reporting Station
Light Rain Light Rain  
Wind Chill: 52°   Ceiling: 2100
Heat Index: 52°   Visibility: 6mi
Dew Point: 46°   Wind: 6mph
Humidity: 82%   Direction: 300°WNW
Pressure: 29.85"   Gusts: NA
Location:  40.7567°N, 77.488°W
Report Text: KUNV 211953Z 30005KT 6SM -RA BKN021 BKN025 OVC042 11/08 A2985
Loading
Personal Weather Stations






























Interactive Weather Map
Tropical Storm Tracking
New forecast layout! Learn more

10-Day Weather Forecast

Advertisements
Track Severe Weather on mobile